KWRI/WRI METAR and TAF weather

Enter ICAO airport designator
Station Type Date Time Source
KWRI METAR 2019/07/20 04:56 UTC NOAA

KWRI 200456Z AUTO 22004KT 10SM CLR 26/25 A2986 RMK AO2 SLP110 T02640246 403410228 $


Station Type Date Time Source
KWRI Decoded METAR 2019/07/20 04:56 UTC NOAA

Mcguire Air Force Base, NJ, United States (KWRI) 40-01N 074-36W
Jul 20, 2019 - 12:56 AM EDT / 2019.07.20 0456 UTC
Wind: from the SW (220 degrees) at 5 MPH (4 KT):0
Visibility: 10 mile(s):0
Sky conditions: clear
Temperature: 79.5 F (26.4 C)
Dew Point: 76.3 F (24.6 C)
Relative Humidity: 89%
Pressure (altimeter): 29.86 in. Hg (1011 hPa)
ob: KWRI 200456Z AUTO 22004KT 10SM CLR 26/25 A2986 RMK AO2 SLP110 T02640246 403410228
cycle: 5

Station Type Date Time Source
KWRI TAF 2019/07/20 02:12 UTC NOAA

TAF KWRI 200200Z 2002/2108 24005KT 9999 FEW250 QNH2986INS
TEMPO 2008/2012 8000 BR
BECMG 2013/2014 27006KT 9999 FEW050 QNH2987INS
BECMG 2017/2018 25012KT 9999 FEW050 SCT220 QNH2982INS TX37/2020Z TN25/2010Z

Example: see airport list